createdAt,value
2022-11-24T00:01:12.335Z,6.12
2022-11-24T00:03:45.794Z,6.09
2022-11-24T00:06:17.711Z,6.08
2022-11-24T00:08:49.322Z,6.07
2022-11-24T00:11:28.074Z,6.11
2022-11-24T00:13:59.745Z,6.09
2022-11-24T00:16:33.607Z,6.08
2022-11-24T00:19:09.328Z,6.08
2022-11-24T00:21:41.308Z,6.07
2022-11-24T00:24:12.979Z,5.98
2022-11-24T00:26:45.226Z,5.89
2022-11-24T00:29:16.845Z,5.83
2022-11-24T00:31:48.450Z,5.83
2022-11-24T00:34:20.029Z,5.84
2022-11-24T00:36:51.580Z,5.88
2022-11-24T00:39:23.463Z,5.91
2022-11-24T00:41:57.357Z,5.87
2022-11-24T00:44:29.002Z,5.85
2022-11-24T00:47:00.654Z,5.85
2022-11-24T00:49:32.708Z,5.84
2022-11-24T00:52:04.642Z,5.90
2022-11-24T00:54:36.297Z,5.93
2022-11-24T00:57:10.274Z,5.97
2022-11-24T00:59:41.894Z,6.01
2022-11-24T01:02:13.579Z,6.02
2022-11-24T01:04:45.220Z,5.96
2022-11-24T01:07:17.095Z,5.97
2022-11-24T01:09:51.692Z,6.00
2022-11-24T01:12:23.381Z,6.00
2022-11-24T01:14:55.104Z,6.02
2022-11-24T01:17:27.371Z,6.01
2022-11-24T01:19:59.013Z,5.98
2022-11-24T01:22:30.842Z,5.97
2022-11-24T01:25:02.393Z,5.97
2022-11-24T01:27:33.971Z,5.96
2022-11-24T01:30:07.113Z,5.92
2022-11-24T01:32:38.794Z,5.92
2022-11-24T01:35:10.606Z,5.91
2022-11-24T01:37:42.205Z,5.93
2022-11-24T01:40:13.828Z,5.95
2022-11-24T01:42:52.742Z,6.00
2022-11-24T01:45:40.889Z,6.00
2022-11-24T01:48:27.288Z,5.98
2022-11-24T01:51:12.551Z,5.96
2022-11-24T01:53:48.576Z,5.93
2022-11-24T01:56:20.478Z,5.88
2022-11-24T01:58:56.787Z,5.88
2022-11-24T02:01:29.370Z,5.90
2022-11-24T02:04:03.310Z,5.88
2022-11-24T02:06:37.000Z,5.87
2022-11-24T02:09:18.032Z,5.84
2022-11-24T02:11:49.849Z,5.81
2022-11-24T02:14:23.641Z,5.80
2022-11-24T02:16:55.383Z,5.78
2022-11-24T02:19:52.989Z,5.80
2022-11-24T02:22:42.873Z,5.82
2022-11-24T02:25:30.809Z,5.80
2022-11-24T02:28:07.264Z,5.80
2022-11-24T02:30:40.799Z,5.71
2022-11-24T02:33:13.011Z,5.65
2022-11-24T02:35:46.660Z,5.60
2022-11-24T02:38:18.325Z,5.60
2022-11-24T02:40:49.913Z,5.63
2022-11-24T02:43:23.693Z,5.62
2022-11-24T02:45:55.300Z,5.61
2022-11-24T02:48:28.484Z,5.64
2022-11-24T02:51:00.186Z,5.67
2022-11-24T02:53:31.832Z,5.71
2022-11-24T02:56:03.729Z,5.69
2022-11-24T02:58:35.689Z,5.72
2022-11-24T03:01:07.305Z,5.77
2022-11-24T03:03:39.139Z,5.75
2022-11-24T03:06:10.677Z,5.77
2022-11-24T03:08:42.253Z,5.78
2022-11-24T03:11:13.807Z,5.84
2022-11-24T03:13:47.731Z,5.81
2022-11-24T03:16:19.373Z,5.84
2022-11-24T03:18:52.295Z,5.82
2022-11-24T03:21:23.862Z,5.78
2022-11-24T03:23:57.757Z,5.83
2022-11-24T03:26:29.624Z,5.80
2022-11-24T03:29:03.613Z,5.81
2022-11-24T03:31:35.684Z,5.76
2022-11-24T03:34:07.281Z,5.70
2022-11-24T03:36:38.900Z,5.70
2022-11-24T03:39:10.530Z,5.68
2022-11-24T03:41:45.579Z,5.68
2022-11-24T03:44:18.009Z,5.66
2022-11-24T03:46:50.968Z,5.61
2022-11-24T03:49:22.665Z,5.61
2022-11-24T03:51:54.243Z,5.62
2022-11-24T03:54:25.833Z,5.64
2022-11-24T03:56:57.351Z,5.63
2022-11-24T03:59:28.950Z,5.52
2022-11-24T04:02:00.625Z,5.56
2022-11-24T04:04:32.453Z,5.61
2022-11-24T04:07:04.659Z,5.60
2022-11-24T04:09:36.253Z,5.62
2022-11-24T04:12:27.627Z,5.63
2022-11-24T04:14:59.192Z,5.63
2022-11-24T04:17:30.733Z,5.64
2022-11-24T04:20:02.387Z,5.66
2022-11-24T04:22:34.240Z,5.64
2022-11-24T04:25:06.617Z,5.67
2022-11-24T04:27:39.041Z,5.70
2022-11-24T04:30:10.822Z,5.68
2022-11-24T04:32:42.363Z,5.67
2022-11-24T04:35:14.302Z,5.67
2022-11-24T04:37:46.060Z,5.67
2022-11-24T04:40:17.758Z,5.70
2022-11-24T04:42:56.288Z,5.61
2022-11-24T04:45:27.911Z,5.58
2022-11-24T04:47:59.444Z,5.59
2022-11-24T04:50:31.041Z,5.55
2022-11-24T04:53:02.625Z,5.57
2022-11-24T04:55:34.225Z,5.50
2022-11-24T04:58:08.913Z,5.49
2022-11-24T05:00:41.181Z,5.50
2022-11-24T05:03:12.773Z,5.47
2022-11-24T05:05:44.342Z,5.50
2022-11-24T05:08:15.971Z,5.48
2022-11-24T05:10:47.524Z,5.38
2022-11-24T05:13:19.093Z,5.35
2022-11-24T05:15:53.938Z,5.33
2022-11-24T05:18:25.743Z,5.20
2022-11-24T05:20:58.946Z,5.18
2022-11-24T05:23:31.096Z,5.17
2022-11-24T05:26:03.400Z,5.18
2022-11-24T05:28:34.985Z,5.18
2022-11-24T05:31:06.657Z,5.21
2022-11-24T05:33:38.324Z,5.21
2022-11-24T05:36:30.144Z,5.19
2022-11-24T05:39:01.771Z,5.21
2022-11-24T05:41:33.373Z,5.20
2022-11-24T05:44:06.484Z,5.18
2022-11-24T05:46:39.221Z,5.23
2022-11-24T05:49:10.948Z,5.27
2022-11-24T05:51:42.568Z,5.29
2022-11-24T05:54:14.184Z,5.27
2022-11-24T05:56:45.772Z,5.25
2022-11-24T05:59:17.349Z,5.27
2022-11-24T06:01:49.076Z,5.27
2022-11-24T06:04:20.741Z,5.24
2022-11-24T06:06:52.316Z,5.19
2022-11-24T06:09:23.914Z,5.13
2022-11-24T06:11:56.064Z,5.15
2022-11-24T06:14:27.971Z,5.18
2022-11-24T06:16:59.864Z,5.18
2022-11-24T06:19:31.568Z,5.15
2022-11-24T06:22:03.394Z,5.22
2022-11-24T06:24:35.143Z,5.26
2022-11-24T06:27:07.731Z,5.28
2022-11-24T06:29:39.449Z,5.31
2022-11-24T06:32:11.193Z,5.25
2022-11-24T06:34:43.912Z,5.19
2022-11-24T06:37:15.592Z,5.19
2022-11-24T06:39:47.250Z,5.24
2022-11-24T06:42:19.093Z,5.31
2022-11-24T06:44:51.198Z,5.37
2022-11-24T06:47:22.826Z,5.35
2022-11-24T06:49:54.492Z,5.35
2022-11-24T06:52:29.147Z,5.42
2022-11-24T06:55:03.646Z,5.48
2022-11-24T06:57:35.424Z,5.52
2022-11-24T07:00:07.979Z,5.51
2022-11-24T07:02:45.516Z,5.51
2022-11-24T07:05:17.565Z,5.56
2022-11-24T07:07:52.293Z,5.55
2022-11-24T07:10:23.961Z,5.55
2022-11-24T07:12:55.606Z,5.54
2022-11-24T07:15:28.664Z,5.54
2022-11-24T07:18:00.419Z,5.50
2022-11-24T07:20:32.079Z,5.49
2022-11-24T07:23:03.766Z,5.49
2022-11-24T07:25:35.478Z,5.55
2022-11-24T07:28:07.054Z,5.60
2022-11-24T07:30:38.666Z,5.64
2022-11-24T07:33:10.359Z,5.66
2022-11-24T07:35:41.980Z,5.68
2022-11-24T07:38:13.615Z,5.70
2022-11-24T07:40:45.226Z,5.73
2022-11-24T07:43:20.191Z,5.77
2022-11-24T07:45:53.764Z,5.75
2022-11-24T07:48:25.401Z,5.80
2022-11-24T07:50:59.479Z,5.78
2022-11-24T07:53:35.091Z,5.80
2022-11-24T07:56:07.368Z,5.84
2022-11-24T07:58:39.059Z,5.80
2022-11-24T08:01:18.110Z,5.83
2022-11-24T08:03:49.940Z,5.83
2022-11-24T08:06:25.482Z,5.84
2022-11-24T08:08:58.805Z,5.84
2022-11-24T08:11:31.585Z,5.84
2022-11-24T08:14:03.248Z,5.82
2022-11-24T08:16:34.845Z,5.87
2022-11-24T08:19:06.618Z,5.83
2022-11-24T08:21:38.466Z,5.84
2022-11-24T08:24:10.262Z,5.89
2022-11-24T08:26:42.219Z,5.88
2022-11-24T08:29:13.807Z,5.91
2022-11-24T08:31:45.378Z,5.91
2022-11-24T08:34:16.975Z,5.98
2022-11-24T08:36:48.549Z,6.00
2022-11-24T08:39:20.539Z,5.98
2022-11-24T08:41:52.325Z,6.04
2022-11-24T08:44:23.953Z,6.04
2022-11-24T08:46:55.977Z,6.04
2022-11-24T08:49:27.829Z,6.04
2022-11-24T08:51:59.539Z,6.08
2022-11-24T08:54:31.217Z,6.14
2022-11-24T08:57:02.832Z,6.20
2022-11-24T08:59:34.465Z,6.19
2022-11-24T09:02:10.667Z,6.20
2022-11-24T09:04:44.437Z,6.21
2022-11-24T09:07:16.173Z,6.18
2022-11-24T09:09:49.085Z,6.23
2022-11-24T09:12:20.786Z,6.26
2022-11-24T09:14:52.339Z,6.31
2022-11-24T09:17:23.924Z,6.35
2022-11-24T09:19:55.483Z,6.41
2022-11-24T09:22:27.319Z,6.43
2022-11-24T09:24:58.955Z,6.40
2022-11-24T09:27:30.636Z,6.39
2022-11-24T09:30:02.737Z,6.41
2022-11-24T09:32:34.296Z,6.43
2022-11-24T09:35:08.991Z,6.42
2022-11-24T09:37:40.447Z,6.41
2022-11-24T09:40:14.315Z,6.42
2022-11-24T09:43:20.012Z,6.40
2022-11-24T09:46:18.976Z,6.36
2022-11-24T09:48:56.672Z,6.41
2022-11-24T09:51:32.081Z,6.43
2022-11-24T09:54:17.065Z,6.52
2022-11-24T09:56:51.328Z,6.57
2022-11-24T09:59:25.141Z,6.62
2022-11-24T10:01:57.075Z,6.59
2022-11-24T10:04:41.720Z,6.62
2022-11-24T10:07:31.055Z,6.65
2022-11-24T10:10:24.292Z,6.64
2022-11-24T10:13:35.244Z,6.68
2022-11-24T10:16:26.736Z,6.71
2022-11-24T10:19:14.447Z,6.71
2022-11-24T10:22:16.026Z,6.76
2022-11-24T10:25:13.467Z,6.83
2022-11-24T10:27:54.968Z,6.87
2022-11-24T10:30:27.078Z,6.92
2022-11-24T10:33:04.980Z,6.94
2022-11-24T10:35:38.861Z,7.01
2022-11-24T10:38:31.020Z,6.99
2022-11-24T10:41:10.277Z,7.01
2022-11-24T10:43:43.051Z,7.01
2022-11-24T10:46:16.796Z,7.04
2022-11-24T10:48:53.044Z,7.10
2022-11-24T10:51:30.686Z,7.15
2022-11-24T10:54:12.605Z,7.11
2022-11-24T10:56:46.373Z,7.20
2022-11-24T10:59:22.528Z,7.29
2022-11-24T11:01:55.063Z,7.35
2022-11-24T11:04:34.891Z,7.36
2022-11-24T11:07:18.860Z,7.33
2022-11-24T11:09:51.369Z,7.28
2022-11-24T11:12:43.287Z,7.30
2022-11-24T11:15:26.502Z,7.36
2022-11-24T11:18:01.834Z,7.40
2022-11-24T11:20:34.624Z,7.47
2022-11-24T11:23:22.450Z,7.49
2022-11-24T11:26:19.401Z,7.53
2022-11-24T11:35:12.508Z,7.53
2022-11-24T11:37:45.260Z,7.55
2022-11-24T11:40:21.410Z,7.61
2022-11-24T11:43:02.908Z,7.66
2022-11-24T11:45:37.046Z,7.67
2022-11-24T11:48:26.954Z,7.74
2022-11-24T11:51:35.143Z,7.82
2022-11-24T11:54:15.713Z,7.88
2022-11-24T11:56:51.910Z,7.95
2022-11-24T11:59:32.378Z,8.03
2022-11-24T12:02:30.839Z,8.02
2022-11-24T12:05:22.498Z,8.07
2022-11-24T12:08:21.028Z,8.09
2022-11-24T12:11:14.448Z,8.14
2022-11-24T12:14:14.316Z,8.20
2022-11-24T12:17:21.274Z,8.26
2022-11-24T12:19:56.162Z,8.30
2022-11-24T12:22:53.810Z,8.33
2022-11-24T12:25:34.646Z,8.36
2022-11-24T12:28:38.027Z,8.30
2022-11-24T12:31:45.477Z,8.23
2022-11-24T12:34:44.594Z,8.23
2022-11-24T12:37:43.522Z,8.26
2022-11-24T12:40:33.929Z,8.26
2022-11-24T12:43:32.580Z,8.26
2022-11-24T12:46:34.865Z,8.28
2022-11-24T12:49:41.057Z,8.26
2022-11-24T12:52:33.760Z,8.22
2022-11-24T12:55:12.769Z,8.22
2022-11-24T12:57:59.353Z,8.24
2022-11-24T13:00:46.950Z,8.29
2022-11-24T13:03:33.018Z,8.31
2022-11-24T13:06:35.459Z,8.34
2022-11-24T13:09:09.409Z,8.38
2022-11-24T13:11:45.073Z,8.40
2022-11-24T13:14:31.796Z,8.47
2022-11-24T13:17:31.011Z,8.49
2022-11-24T13:20:20.891Z,8.50
2022-11-24T13:22:58.605Z,8.53
2022-11-24T13:25:32.724Z,8.57
2022-11-24T13:28:06.821Z,8.58
2022-11-24T13:30:41.075Z,8.58
2022-11-24T13:33:16.630Z,8.59
2022-11-24T13:36:04.285Z,8.62
2022-11-24T13:38:45.021Z,8.62
2022-11-24T13:41:31.613Z,8.65
2022-11-24T13:44:15.220Z,8.69
2022-11-24T13:47:38.645Z,8.72
2022-11-24T13:50:24.786Z,8.75
2022-11-24T13:53:08.421Z,8.76
2022-11-24T13:55:41.596Z,8.71
2022-11-24T13:58:13.224Z,8.69
2022-11-24T14:01:08.784Z,8.70
2022-11-24T14:04:28.133Z,8.73
2022-11-24T14:06:49.383Z,8.72
2022-11-24T14:09:24.211Z,8.75
2022-11-24T14:12:07.981Z,8.75
2022-11-24T14:14:42.192Z,8.76
2022-11-24T14:17:14.619Z,8.77
2022-11-24T14:19:49.187Z,8.79
2022-11-24T14:22:43.407Z,8.79
2022-11-24T14:25:31.398Z,8.78
2022-11-24T14:28:34.824Z,8.78
2022-11-24T14:31:08.802Z,8.77
2022-11-24T14:33:40.467Z,8.77
2022-11-24T14:36:16.819Z,8.98
2022-11-24T14:38:48.563Z,9.02
2022-11-24T14:41:28.375Z,9.00
2022-11-24T14:44:08.988Z,9.00
2022-11-24T14:46:40.959Z,8.99
2022-11-24T14:49:23.320Z,8.94
2022-11-24T14:52:02.280Z,8.93
2022-11-24T14:54:35.851Z,8.90
2022-11-24T14:57:24.019Z,8.86
2022-11-24T15:00:08.151Z,8.85
2022-11-24T15:02:48.593Z,8.85
2022-11-24T15:05:22.906Z,8.84
2022-11-24T15:08:02.654Z,8.81
2022-11-24T15:10:38.669Z,8.79
2022-11-24T15:13:20.636Z,8.77
2022-11-24T15:16:02.135Z,8.73
2022-11-24T15:18:42.395Z,8.71
2022-11-24T15:21:19.137Z,8.68
2022-11-24T15:24:17.689Z,8.66
2022-11-24T15:26:49.370Z,8.62
2022-11-24T15:29:21.354Z,8.60
2022-11-24T15:31:53.265Z,8.58
2022-11-24T15:34:25.146Z,8.58
2022-11-24T15:36:56.810Z,8.56
2022-11-24T15:39:28.557Z,8.54
2022-11-24T15:42:00.609Z,8.50
2022-11-24T15:44:33.252Z,8.48
2022-11-24T15:47:05.208Z,8.45
2022-11-24T15:49:37.102Z,8.43
2022-11-24T15:52:08.757Z,8.42
2022-11-24T15:54:40.487Z,8.41
2022-11-24T15:57:12.243Z,8.41
2022-11-24T15:59:44.132Z,8.41
2022-11-24T16:02:15.880Z,8.38
2022-11-24T16:04:48.500Z,8.37
2022-11-24T16:07:20.197Z,8.36
2022-11-24T16:09:54.112Z,8.35
2022-11-24T16:12:25.684Z,8.34
2022-11-24T16:14:57.405Z,8.34
2022-11-24T16:17:29.041Z,8.34
2022-11-24T16:20:01.123Z,8.34
2022-11-24T16:22:33.030Z,8.33
2022-11-24T16:25:05.441Z,8.32
2022-11-24T16:27:37.127Z,8.31
2022-11-24T16:30:12.317Z,8.33
2022-11-24T16:32:44.018Z,8.32
2022-11-24T16:35:16.539Z,8.32
2022-11-24T16:37:48.977Z,8.34
2022-11-24T16:40:20.632Z,8.33
2022-11-24T16:42:53.055Z,8.34
2022-11-24T16:45:24.842Z,8.34
2022-11-24T16:47:56.484Z,8.36
2022-11-24T16:50:28.308Z,8.36
2022-11-24T16:53:00.164Z,8.36
2022-11-24T16:55:34.409Z,8.37
2022-11-24T16:58:06.076Z,8.34
2022-11-24T17:00:37.788Z,8.34
2022-11-24T17:03:12.089Z,8.31
2022-11-24T17:05:43.814Z,8.30
2022-11-24T17:08:15.472Z,8.29
2022-11-24T17:10:47.190Z,8.29
2022-11-24T17:13:18.925Z,8.28
2022-11-24T17:15:54.186Z,8.27
2022-11-24T17:18:27.516Z,8.27
2022-11-24T17:21:02.102Z,8.26
2022-11-24T17:23:38.069Z,8.26
2022-11-24T17:26:17.403Z,8.26
2022-11-24T17:28:49.095Z,8.28
2022-11-24T17:31:27.352Z,8.29
2022-11-24T17:34:00.415Z,8.30
2022-11-24T17:36:33.764Z,8.28
2022-11-24T17:39:07.186Z,8.29
2022-11-24T17:41:39.087Z,8.27
2022-11-24T17:44:12.726Z,8.26
2022-11-24T17:46:44.912Z,8.27
2022-11-24T17:49:16.612Z,8.25
2022-11-24T17:51:50.588Z,8.24
2022-11-24T17:54:45.517Z,8.23
2022-11-24T17:57:13.965Z,8.25
2022-11-24T17:59:48.059Z,8.20
2022-11-24T18:02:20.177Z,8.21
2022-11-24T18:04:51.918Z,8.23
2022-11-24T18:07:23.641Z,8.21
2022-11-24T18:09:55.274Z,8.21
2022-11-24T18:12:26.903Z,8.17
2022-11-24T18:14:58.556Z,8.11
2022-11-24T18:17:30.232Z,8.10
2022-11-24T18:20:01.836Z,8.13
2022-11-24T18:23:04.013Z,8.14
2022-11-24T18:25:26.358Z,8.14
2022-11-24T18:27:58.475Z,8.13
2022-11-24T18:30:30.404Z,8.12
2022-11-24T18:33:02.154Z,8.11
2022-11-24T18:35:33.785Z,8.13
2022-11-24T18:38:06.498Z,8.10
2022-11-24T18:40:39.856Z,8.09
2022-11-24T18:43:11.515Z,8.11
2022-11-24T18:45:43.232Z,8.13
2022-11-24T18:48:15.530Z,8.15
2022-11-24T18:50:57.158Z,8.14
2022-11-24T18:53:29.504Z,8.14
2022-11-24T18:56:03.774Z,8.10
2022-11-24T18:58:35.975Z,8.09
2022-11-24T19:01:11.949Z,8.08
2022-11-24T19:03:49.718Z,8.07
2022-11-24T19:06:32.589Z,8.06
2022-11-24T19:09:08.796Z,8.01
2022-11-24T19:11:42.958Z,7.92
2022-11-24T19:14:19.325Z,7.85
2022-11-24T19:16:51.275Z,7.83
2022-11-24T19:19:23.046Z,7.85
2022-11-24T19:21:55.196Z,7.80
2022-11-24T19:24:26.945Z,7.74
2022-11-24T19:26:58.619Z,7.74
2022-11-24T19:29:30.332Z,7.73
2022-11-24T19:32:02.185Z,7.74
2022-11-24T19:34:34.150Z,7.75
2022-11-24T19:37:05.959Z,7.72
2022-11-24T19:39:37.613Z,7.70
2022-11-24T19:42:09.488Z,7.67
2022-11-24T19:44:43.842Z,7.67
2022-11-24T19:47:15.490Z,7.65
2022-11-24T19:49:47.440Z,7.60
2022-11-24T19:52:19.040Z,7.55
2022-11-24T19:54:54.010Z,7.54
2022-11-24T19:57:26.044Z,7.56
2022-11-24T19:59:58.075Z,7.50
2022-11-24T20:02:35.853Z,7.45
2022-11-24T20:05:15.248Z,7.39
2022-11-24T20:07:50.342Z,7.37
2022-11-24T20:10:22.033Z,7.34
2022-11-24T20:12:55.800Z,7.30
2022-11-24T20:15:28.951Z,7.29
2022-11-24T20:18:00.568Z,7.23
2022-11-24T20:20:33.324Z,7.19
2022-11-24T20:23:06.059Z,7.13
2022-11-24T20:25:38.408Z,7.11
2022-11-24T20:28:10.068Z,7.06
2022-11-24T20:30:41.801Z,7.01
2022-11-24T20:33:13.427Z,6.96
2022-11-24T20:35:45.071Z,6.91
2022-11-24T20:38:16.986Z,6.87
2022-11-24T20:40:48.632Z,6.84
2022-11-24T20:43:20.411Z,6.78
2022-11-24T20:45:52.137Z,6.77
2022-11-24T20:48:23.824Z,6.75
2022-11-24T20:50:55.521Z,6.72
2022-11-24T20:53:29.190Z,6.68
2022-11-24T20:56:06.541Z,6.64
2022-11-24T20:58:38.678Z,6.64
2022-11-24T21:01:16.712Z,6.64
2022-11-24T21:03:53.785Z,6.62
2022-11-24T21:06:28.724Z,6.60
2022-11-24T21:09:03.667Z,6.62
2022-11-24T21:11:36.881Z,6.66
2022-11-24T21:14:08.767Z,6.69
2022-11-24T21:16:42.091Z,6.72
2022-11-24T21:19:17.100Z,6.75
2022-11-24T21:21:48.989Z,6.79
2022-11-24T21:24:21.796Z,6.84
2022-11-24T21:26:53.539Z,6.87
2022-11-24T21:29:25.672Z,6.91
2022-11-24T21:31:57.320Z,6.94
2022-11-24T21:34:29.466Z,6.95
2022-11-24T21:37:01.131Z,6.96
2022-11-24T21:39:32.810Z,6.98
2022-11-24T21:42:04.752Z,6.99
2022-11-24T21:44:37.121Z,7.03
2022-11-24T21:47:08.900Z,7.03
2022-11-24T21:49:40.502Z,7.01
2022-11-24T21:52:12.169Z,7.06
2022-11-24T21:54:43.722Z,7.10
2022-11-24T21:57:15.427Z,7.13
2022-11-24T21:59:47.217Z,7.16
2022-11-24T22:02:18.883Z,7.08
2022-11-24T22:04:50.506Z,7.09
2022-11-24T22:07:22.302Z,7.12
2022-11-24T22:09:53.912Z,7.11
2022-11-24T22:12:25.541Z,7.08
2022-11-24T22:14:57.201Z,7.01
2022-11-24T22:17:30.967Z,7.24
2022-11-24T22:20:02.792Z,7.22
2022-11-24T22:22:34.425Z,7.25
2022-11-24T22:25:06.457Z,7.28
2022-11-24T22:27:38.133Z,7.23
2022-11-24T22:30:10.603Z,7.20
2022-11-24T22:32:42.336Z,7.20
2022-11-24T22:35:14.192Z,7.22
2022-11-24T22:37:45.851Z,7.25
2022-11-24T22:40:17.548Z,7.27
2022-11-24T22:42:49.186Z,7.28
2022-11-24T22:45:20.737Z,7.26
2022-11-24T22:47:56.541Z,7.23
2022-11-24T22:50:28.144Z,7.25
2022-11-24T22:53:00.004Z,7.25
2022-11-24T22:55:31.565Z,7.22
2022-11-24T22:58:03.210Z,7.22
2022-11-24T23:00:34.725Z,7.23
2022-11-24T23:03:06.530Z,7.21
2022-11-24T23:05:38.143Z,7.22
2022-11-24T23:08:09.852Z,7.25
2022-11-24T23:10:41.444Z,7.26
2022-11-24T23:13:13.029Z,7.28
2022-11-24T23:15:44.586Z,7.28
2022-11-24T23:18:16.203Z,7.29
2022-11-24T23:20:47.874Z,7.26
2022-11-24T23:23:19.539Z,7.28
2022-11-24T23:25:51.127Z,7.24
2022-11-24T23:28:22.791Z,7.20
2022-11-24T23:30:54.426Z,7.19
2022-11-24T23:33:26.158Z,7.21
2022-11-24T23:36:09.504Z,7.23
2022-11-24T23:38:42.396Z,7.24
2022-11-24T23:41:22.044Z,7.26
2022-11-24T23:43:53.677Z,7.25
2022-11-24T23:46:26.905Z,7.19
2022-11-24T23:48:59.021Z,7.21
2022-11-24T23:51:32.811Z,7.23
2022-11-24T23:54:08.840Z,7.25
2022-11-24T23:56:40.411Z,7.25
2022-11-24T23:59:12.403Z,7.24
